sensor_id;sensor_type;location;lat;lon;timestamp;pressure;altitude;pressure_sealevel;temperature;humidity
72857;BME280;62742;52.136;4.500;2023-12-20T09:49:18;101578.91;;;8.17;100.00
72857;BME280;62742;52.136;4.500;2023-12-20T09:51:46;101581.72;;;8.45;100.00
72857;BME280;62742;52.136;4.500;2023-12-20T09:54:17;101575.69;;;8.67;100.00
72857;BME280;62742;52.136;4.500;2023-12-20T09:56:44;101581.88;;;8.78;100.00
72857;BME280;62742;52.136;4.500;2023-12-20T09:59:11;101581.06;;;8.92;100.00
72857;BME280;62742;52.136;4.500;2023-12-20T10:01:40;101566.19;;;9.00;100.00
72857;BME280;62742;52.136;4.500;2023-12-20T10:04:09;101580.22;;;9.10;100.00
72857;BME280;62742;52.136;4.500;2023-12-20T10:06:42;101574.97;;;9.14;100.00
72857;BME280;62742;52.136;4.500;2023-12-20T10:09:10;101574.09;;;9.09;100.00
72857;BME280;62742;52.136;4.500;2023-12-20T10:11:39;101567.97;;;9.01;100.00
72857;BME280;62742;52.136;4.500;2023-12-20T10:14:06;101581.06;;;8.99;100.00
72857;BME280;62742;52.136;4.500;2023-12-20T10:16:33;101581.91;;;8.92;100.00
72857;BME280;62742;52.136;4.500;2023-12-20T10:19:00;101588.06;;;9.02;100.00
72857;BME280;62742;52.136;4.500;2023-12-20T10:21:27;101578.44;;;9.03;100.00
72857;BME280;62742;52.136;4.500;2023-12-20T10:23:55;101577.53;;;8.84;100.00
72857;BME280;62742;52.136;4.500;2023-12-20T10:26:23;101564.44;;;8.93;100.00
72857;BME280;62742;52.136;4.500;2023-12-20T10:28:56;101577.53;;;8.84;100.00
72857;BME280;62742;52.136;4.500;2023-12-20T10:31:30;101579.25;;;8.85;100.00
72857;BME280;62742;52.136;4.500;2023-12-20T10:33:58;101573.16;;;8.89;100.00
72857;BME280;62742;52.136;4.500;2023-12-20T10:36:29;101579.31;;;8.94;100.00
72857;BME280;62742;52.136;4.500;2023-12-20T10:38:57;101566.22;;;9.06;100.00
72857;BME280;62742;52.136;4.500;2023-12-20T10:41:27;101564.47;;;9.10;100.00
72857;BME280;62742;52.136;4.500;2023-12-20T10:44:04;101554.91;;;9.33;100.00
72857;BME280;62742;52.136;4.500;2023-12-20T10:46:31;101549.66;;;9.32;100.00
72857;BME280;62742;52.136;4.500;2023-12-20T10:49:05;101540.06;;;9.29;100.00
72857;BME280;62742;52.136;4.500;2023-12-20T10:51:34;101534.81;;;9.42;100.00
72857;BME280;62742;52.136;4.500;2023-12-20T10:54:01;101535.69;;;9.45;100.00
72857;BME280;62742;52.136;4.500;2023-12-20T10:56:31;101529.53;;;9.63;99.95
72857;BME280;62742;52.136;4.500;2023-12-20T10:59:02;101531.28;;;9.75;98.48
72857;BME280;62742;52.136;4.500;2023-12-20T11:01:32;101539.16;;;9.83;98.45
72857;BME280;62742;52.136;4.500;2023-12-20T11:04:02;101520.78;;;9.80;96.41
72857;BME280;62742;52.136;4.500;2023-12-20T11:06:46;101540.03;;;9.66;98.74
72857;BME280;62742;52.136;4.500;2023-12-20T11:09:24;101532.19;;;9.52;98.86
72857;BME280;62742;52.136;4.500;2023-12-20T11:12:01;101529.56;;;9.42;98.66
72857;BME280;62742;52.136;4.500;2023-12-20T11:14:38;101532.19;;;9.45;100.00
72857;BME280;62742;52.136;4.500;2023-12-20T11:17:17;101533.06;;;9.47;98.86
72857;BME280;62742;52.136;4.500;2023-12-20T11:22:24;101527.78;;;9.38;99.59
72857;BME280;62742;52.136;4.500;2023-12-20T11:24:52;101518.19;;;9.32;99.78
72857;BME280;62742;52.136;4.500;2023-12-20T11:27:20;101501.56;;;9.38;100.00
72857;BME280;62742;52.136;4.500;2023-12-20T11:29:53;101499.81;;;9.43;99.22
72857;BME280;62742;52.136;4.500;2023-12-20T11:34:53;101494.56;;;9.47;98.91
72857;BME280;62742;52.136;4.500;2023-12-20T11:37:40;101490.22;;;9.40;100.00
72857;BME280;62742;52.136;4.500;2023-12-20T11:40:17;101497.22;;;9.38;100.00
72857;BME280;62742;52.136;4.500;2023-12-20T11:42:48;101493.72;;;9.50;99.70
72857;BME280;62742;52.136;4.500;2023-12-20T11:45:21;101492.84;;;9.43;100.00
72857;BME280;62742;52.136;4.500;2023-12-20T11:47:51;101490.19;;;9.49;99.69
72857;BME280;62742;52.136;4.500;2023-12-20T11:50:22;101492.84;;;9.39;100.00
72857;BME280;62742;52.136;4.500;2023-12-20T11:52:51;101485.84;;;9.39;100.00
72857;BME280;62742;52.136;4.500;2023-12-20T11:55:18;101509.44;;;9.42;100.00
72857;BME280;62742;52.136;4.500;2023-12-20T11:57:45;101491.09;;;9.51;100.00
72857;BME280;62742;52.136;4.500;2023-12-20T12:00:12;101501.56;;;9.39;100.00
72857;BME280;62742;52.136;4.500;2023-12-20T12:02:40;101490.22;;;9.46;100.00
72857;BME280;62742;52.136;4.500;2023-12-20T12:05:07;101496.31;;;9.56;100.00
72857;BME280;62742;52.136;4.500;2023-12-20T12:07:34;101493.72;;;9.50;100.00
72857;BME280;62742;52.136;4.500;2023-12-20T12:10:02;101489.34;;;9.46;100.00
72857;BME280;62742;52.136;4.500;2023-12-20T12:12:30;101491.09;;;9.41;100.00
72857;BME280;62742;52.136;4.500;2023-12-20T12:14:58;101491.09;;;9.30;100.00
72857;BME280;62742;52.136;4.500;2023-12-20T12:17:25;101486.72;;;9.47;99.70
72857;BME280;62742;52.136;4.500;2023-12-20T12:20:02;101484.09;;;9.36;100.00
72857;BME280;62742;52.136;4.500;2023-12-20T12:22:31;101471.00;;;9.36;100.00
72857;BME280;62742;52.136;4.500;2023-12-20T12:25:08;101474.50;;;9.28;100.00
72857;BME280;62742;52.136;4.500;2023-12-20T12:27:36;101456.09;;;9.32;100.00
72857;BME280;62742;52.136;4.500;2023-12-20T12:30:05;101466.59;;;9.39;100.00
72857;BME280;62742;52.136;4.500;2023-12-20T12:32:36;101464.00;;;9.40;100.00
72857;BME280;62742;52.136;4.500;2023-12-20T12:35:05;101457.88;;;9.36;100.00
72857;BME280;62742;52.136;4.500;2023-12-20T12:37:37;101457.88;;;9.33;100.00
72857;BME280;62742;52.136;4.500;2023-12-20T12:40:12;101460.47;;;9.49;100.00
72857;BME280;62742;52.136;4.500;2023-12-20T12:42:42;101441.25;;;9.42;99.66
72857;BME280;62742;52.136;4.500;2023-12-20T12:45:10;101449.13;;;9.42;99.35
72857;BME280;62742;52.136;4.500;2023-12-20T12:47:40;101449.13;;;9.41;100.00
72857;BME280;62742;52.136;4.500;2023-12-20T12:50:07;101443.00;;;9.43;98.64
72857;BME280;62742;52.136;4.500;2023-12-20T12:52:34;101449.13;;;9.45;99.73
72857;BME280;62742;52.136;4.500;2023-12-20T12:55:01;101440.38;;;9.45;99.22
72857;BME280;62742;52.136;4.500;2023-12-20T12:57:27;101439.53;;;9.38;99.77
72857;BME280;62742;52.136;4.500;2023-12-20T12:59:54;101434.28;;;9.35;100.00
72857;BME280;62742;52.136;4.500;2023-12-20T13:02:20;101415.03;;;9.42;100.00
72857;BME280;62742;52.136;4.500;2023-12-20T13:04:47;101410.66;;;9.36;100.00
72857;BME280;62742;52.136;4.500;2023-12-20T13:07:13;101415.00;;;9.38;100.00
72857;BME280;62742;52.136;4.500;2023-12-20T13:09:40;101395.78;;;9.32;99.31
72857;BME280;62742;52.136;4.500;2023-12-20T13:12:07;101382.69;;;9.37;100.00
72857;BME280;62742;52.136;4.500;2023-12-20T13:14:34;101393.19;;;9.29;100.00
72857;BME280;62742;52.136;4.500;2023-12-20T13:17:05;101392.31;;;9.29;100.00
72857;BME280;62742;52.136;4.500;2023-12-20T13:19:32;101395.81;;;9.31;99.78
72857;BME280;62742;52.136;4.500;2023-12-20T13:21:58;101395.81;;;9.25;100.00
72857;BME280;62742;52.136;4.500;2023-12-20T13:24:25;101385.31;;;9.25;100.00
72857;BME280;62742;52.136;4.500;2023-12-20T13:26:51;101373.09;;;9.28;100.00
72857;BME280;62742;52.136;4.500;2023-12-20T13:29:18;101372.19;;;9.32;100.00
72857;BME280;62742;52.136;4.500;2023-12-20T13:31:44;101373.06;;;9.24;100.00
72857;BME280;62742;52.136;4.500;2023-12-20T13:34:11;101366.09;;;9.21;100.00
72857;BME280;62742;52.136;4.500;2023-12-20T13:36:38;101359.97;;;9.25;100.00
72857;BME280;62742;52.136;4.500;2023-12-20T13:39:05;101352.97;;;9.33;100.00
72857;BME280;62742;52.136;4.500;2023-12-20T13:41:33;101346.84;;;9.25;100.00
72857;BME280;62742;52.136;4.500;2023-12-20T13:43:59;101344.22;;;9.31;100.00
72857;BME280;62742;52.136;4.500;2023-12-20T13:46:27;101352.09;;;9.30;100.00
72857;BME280;62742;52.136;4.500;2023-12-20T13:48:53;101349.47;;;9.30;100.00
72857;BME280;62742;52.136;4.500;2023-12-20T13:51:20;101349.50;;;9.21;100.00
72857;BME280;62742;52.136;4.500;2023-12-20T13:53:47;101337.25;;;9.26;100.00
72857;BME280;62742;52.136;4.500;2023-12-20T13:56:15;101341.63;;;9.33;100.00
72857;BME280;62742;52.136;4.500;2023-12-20T13:58:42;101348.63;;;9.28;100.00
72857;BME280;62742;52.136;4.500;2023-12-20T14:01:09;101336.38;;;9.25;100.00
72857;BME280;62742;52.136;4.500;2023-12-20T14:03:39;101341.66;;;9.16;100.00
72857;BME280;62742;52.136;4.500;2023-12-20T14:06:05;101323.28;;;9.05;100.00
72857;BME280;62742;52.136;4.500;2023-12-20T14:08:31;101324.16;;;9.13;100.00
72857;BME280;62742;52.136;4.500;2023-12-20T14:10:58;101318.06;;;9.01;100.00
72857;BME280;62742;52.136;4.500;2023-12-20T14:13:24;101315.47;;;9.02;100.00
72857;BME280;62742;52.136;4.500;2023-12-20T14:15:51;101331.19;;;8.96;100.00
72857;BME280;62742;52.136;4.500;2023-12-20T14:18:17;101327.69;;;8.91;100.00
72857;BME280;62742;52.136;4.500;2023-12-20T14:20:44;101334.66;;;9.03;100.00
72857;BME280;62742;52.136;4.500;2023-12-20T14:23:13;101353.88;;;9.05;100.00
72857;BME280;62742;52.136;4.500;2023-12-20T14:25:41;101362.63;;;8.96;100.00
72857;BME280;62742;52.136;4.500;2023-12-20T14:28:08;101361.75;;;9.08;100.00
72857;BME280;62742;52.136;4.500;2023-12-20T14:30:36;101365.25;;;8.97;100.00
72857;BME280;62742;52.136;4.500;2023-12-20T14:33:04;101361.75;;;8.94;100.00
72857;BME280;62742;52.136;4.500;2023-12-20T14:35:31;101365.25;;;9.02;100.00
72857;BME280;62742;52.136;4.500;2023-12-20T14:37:57;101362.63;;;8.99;100.00
72857;BME280;62742;52.136;4.500;2023-12-20T14:40:23;101347.78;;;9.03;100.00
72857;BME280;62742;52.136;4.500;2023-12-20T14:42:50;101353.88;;;9.05;100.00
72857;BME280;62742;52.136;4.500;2023-12-20T14:45:17;101345.16;;;9.04;100.00
72857;BME280;62742;52.136;4.500;2023-12-20T14:47:44;101329.44;;;9.04;100.00
72857;BME280;62742;52.136;4.500;2023-12-20T14:50:12;101330.31;;;8.91;100.00
72857;BME280;62742;52.136;4.500;2023-12-20T14:52:44;101326.81;;;8.83;100.00
72857;BME280;62742;52.136;4.500;2023-12-20T14:55:11;101313.72;;;8.86;100.00
72857;BME280;62742;52.136;4.500;2023-12-20T14:57:38;101313.72;;;8.92;100.00
72857;BME280;62742;52.136;4.500;2023-12-20T15:00:05;101317.22;;;8.91;100.00
72857;BME280;62742;52.136;4.500;2023-12-20T15:02:33;101317.22;;;8.97;100.00
72857;BME280;62742;52.136;4.500;2023-12-20T15:05:00;101318.09;;;8.84;100.00
72857;BME280;62742;52.136;4.500;2023-12-20T15:07:27;101321.59;;;8.76;100.00
72857;BME280;62742;52.136;4.500;2023-12-20T15:09:53;101325.09;;;8.80;100.00
72857;BME280;62742;52.136;4.500;2023-12-20T15:12:20;101330.31;;;8.86;100.00
72857;BME280;62742;52.136;4.500;2023-12-20T15:14:46;101324.19;;;8.90;100.00
72857;BME280;62742;52.136;4.500;2023-12-20T15:17:13;101322.44;;;8.91;100.00
72857;BME280;62742;52.136;4.500;2023-12-20T15:19:41;101332.94;;;8.82;100.00
72857;BME280;62742;52.136;4.500;2023-12-20T15:22:11;101329.44;;;8.79;100.00
72857;BME280;62742;52.136;4.500;2023-12-20T15:24:38;101337.28;;;8.79;100.00
72857;BME280;62742;52.136;4.500;2023-12-20T15:27:06;101351.28;;;8.80;100.00
72857;BME280;62742;52.136;4.500;2023-12-20T15:29:33;101353.91;;;8.78;100.00
72857;BME280;62742;52.136;4.500;2023-12-20T15:32:00;101332.94;;;8.75;100.00
72857;BME280;62742;52.136;4.500;2023-12-20T15:34:27;101336.44;;;8.77;100.00
72857;BME280;62742;52.136;4.500;2023-12-20T15:36:54;101330.31;;;8.74;100.00
72857;BME280;62742;52.136;4.500;2023-12-20T15:39:21;101319.84;;;8.80;100.00
72857;BME280;62742;52.136;4.500;2023-12-20T15:41:47;101298.88;;;8.74;100.00
72857;BME280;62742;52.136;4.500;2023-12-20T15:44:14;101294.50;;;8.87;100.00
72857;BME280;62742;52.136;4.500;2023-12-20T15:46:41;101282.25;;;8.79;100.00
72857;BME280;62742;52.136;4.500;2023-12-20T15:49:07;101295.38;;;8.84;100.00
72857;BME280;62742;52.136;4.500;2023-12-20T15:51:37;101288.38;;;8.88;100.00
72857;BME280;62742;52.136;4.500;2023-12-20T15:54:03;101283.16;;;8.83;100.00
72857;BME280;62742;52.136;4.500;2023-12-20T15:56:33;101284.91;;;8.70;100.00
72857;BME280;62742;52.136;4.500;2023-12-20T15:59:00;101294.50;;;8.74;100.00
72857;BME280;62742;52.136;4.500;2023-12-20T16:01:27;101290.16;;;8.63;100.00
72857;BME280;62742;52.136;4.500;2023-12-20T16:03:56;101284.03;;;8.74;100.00
72857;BME280;62742;52.136;4.500;2023-12-20T16:06:22;101279.66;;;8.72;100.00
72857;BME280;62742;52.136;4.500;2023-12-20T16:08:49;101279.66;;;8.66;100.00
72857;BME280;62742;52.136;4.500;2023-12-20T16:11:16;101278.78;;;8.62;100.00
72857;BME280;62742;52.136;4.500;2023-12-20T16:13:45;101269.22;;;8.59;100.00
72857;BME280;62742;52.136;4.500;2023-12-20T16:16:12;101253.50;;;8.61;100.00
72857;BME280;62742;52.136;4.500;2023-12-20T16:18:38;101252.59;;;8.62;100.00
72857;BME280;62742;52.136;4.500;2023-12-20T16:21:05;101232.50;;;8.64;100.00
72857;BME280;62742;52.136;4.500;2023-12-20T16:23:31;101233.41;;;8.54;100.00
72857;BME280;62742;52.136;4.500;2023-12-20T16:25:58;101226.41;;;8.68;100.00
72857;BME280;62742;52.136;4.500;2023-12-20T16:28:24;101234.25;;;8.65;100.00
72857;BME280;62742;52.136;4.500;2023-12-20T16:30:51;101218.56;;;8.68;100.00
72857;BME280;62742;52.136;4.500;2023-12-20T16:33:18;101222.94;;;8.60;100.00
72857;BME280;62742;52.136;4.500;2023-12-20T16:35:45;101214.16;;;8.70;100.00
72857;BME280;62742;52.136;4.500;2023-12-20T16:38:11;101208.06;;;8.67;100.00
72857;BME280;62742;52.136;4.500;2023-12-20T16:40:38;101209.81;;;8.60;100.00
72857;BME280;62742;52.136;4.500;2023-12-20T16:43:04;101188.00;;;8.58;100.00
72857;BME280;62742;52.136;4.500;2023-12-20T16:45:30;101192.38;;;8.56;100.00
72857;BME280;62742;52.136;4.500;2023-12-20T16:47:57;101181.88;;;8.62;100.00
72857;BME280;62742;52.136;4.500;2023-12-20T16:50:23;101180.13;;;8.66;100.00
72857;BME280;62742;52.136;4.500;2023-12-20T16:52:49;101168.78;;;8.59;100.00
72857;BME280;62742;52.136;4.500;2023-12-20T16:55:17;101172.25;;;8.67;100.00
72857;BME280;62742;52.136;4.500;2023-12-20T16:57:44;101167.03;;;8.67;100.00
72857;BME280;62742;52.136;4.500;2023-12-20T17:00:10;101157.44;;;8.57;100.00
72857;BME280;62742;52.136;4.500;2023-12-20T17:02:37;101156.53;;;8.66;100.00
72857;BME280;62742;52.136;4.500;2023-12-20T17:05:05;101158.31;;;8.59;100.00
72857;BME280;62742;52.136;4.500;2023-12-20T17:07:32;101160.91;;;8.73;100.00
72857;BME280;62742;52.136;4.500;2023-12-20T17:09:59;101153.91;;;8.72;100.00
72857;BME280;62742;52.136;4.500;2023-12-20T17:12:25;101156.53;;;8.73;100.00
72857;BME280;62742;52.136;4.500;2023-12-20T17:14:51;101141.72;;;8.66;100.00
72857;BME280;62742;52.136;4.500;2023-12-20T17:17:18;101131.19;;;8.71;100.00
72857;BME280;62742;52.136;4.500;2023-12-20T17:19:45;101144.31;;;8.69;100.00
72857;BME280;62742;52.136;4.500;2023-12-20T17:22:11;101141.72;;;8.61;100.00
72857;BME280;62742;52.136;4.500;2023-12-20T17:24:37;101137.28;;;8.79;100.00
72857;BME280;62742;52.136;4.500;2023-12-20T17:27:04;101132.06;;;8.74;100.00
72857;BME280;62742;52.136;4.500;2023-12-20T17:29:31;101131.19;;;8.77;100.00
72857;BME280;62742;52.136;4.500;2023-12-20T17:31:57;101127.66;;;8.81;100.00
72857;BME280;62742;52.136;4.500;2023-12-20T17:34:25;101128.53;;;8.85;100.00
72857;BME280;62742;52.136;4.500;2023-12-20T17:36:52;101125.91;;;8.85;100.00
72857;BME280;62742;52.136;4.500;2023-12-20T17:39:19;101132.03;;;8.87;100.00
72857;BME280;62742;52.136;4.500;2023-12-20T17:41:46;101131.16;;;8.86;100.00
72857;BME280;62742;52.136;4.500;2023-12-20T17:44:12;101133.75;;;8.95;100.00
72857;BME280;62742;52.136;4.500;2023-12-20T17:46:40;101124.19;;;8.88;100.00
72857;BME280;62742;52.136;4.500;2023-12-20T17:49:07;101125.94;;;8.83;100.00
72857;BME280;62742;52.136;4.500;2023-12-20T17:51:33;101125.84;;;9.02;100.00
72857;BME280;62742;52.136;4.500;2023-12-20T17:54:00;101130.22;;;8.98;100.00
72857;BME280;62742;52.136;4.500;2023-12-20T17:56:28;101099.63;;;9.06;100.00
72857;BME280;62742;52.136;4.500;2023-12-20T17:58:55;101111.03;;;8.96;100.00
72857;BME280;62742;52.136;4.500;2023-12-20T18:01:22;101108.34;;;9.07;100.00
72857;BME280;62742;52.136;4.500;2023-12-20T18:03:48;101096.06;;;9.12;100.00
72857;BME280;62742;52.136;4.500;2023-12-20T18:06:14;101097.84;;;9.13;100.00
72857;BME280;62742;52.136;4.500;2023-12-20T18:08:41;101093.44;;;9.16;100.00
72857;BME280;62742;52.136;4.500;2023-12-20T18:11:08;101090.84;;;9.12;100.00
72857;BME280;62742;52.136;4.500;2023-12-20T18:13:34;101092.59;;;9.16;100.00
72857;BME280;62742;52.136;4.500;2023-12-20T18:16:00;101095.25;;;9.05;100.00
72857;BME280;62742;52.136;4.500;2023-12-20T18:18:26;101098.75;;;9.01;100.00
72857;BME280;62742;52.136;4.500;2023-12-20T18:20:53;101094.28;;;9.20;100.00
72857;BME280;62742;52.136;4.500;2023-12-20T18:23:20;101090.03;;;9.02;100.00
72857;BME280;62742;52.136;4.500;2023-12-20T18:25:47;101083.91;;;9.03;100.00
72857;BME280;62742;52.136;4.500;2023-12-20T18:28:13;101083.91;;;9.02;100.00
72857;BME280;62742;52.136;4.500;2023-12-20T18:30:40;101086.56;;;8.97;100.00
72857;BME280;62742;52.136;4.500;2023-12-20T18:33:06;101083.91;;;9.02;100.00
72857;BME280;62742;52.136;4.500;2023-12-20T18:35:33;101080.44;;;8.99;100.00
72857;BME280;62742;52.136;4.500;2023-12-20T18:38:01;101087.41;;;9.02;100.00
72857;BME280;62742;52.136;4.500;2023-12-20T18:40:27;101058.59;;;9.04;100.00
72857;BME280;62742;52.136;4.500;2023-12-20T18:42:55;101054.22;;;9.03;100.00
72857;BME280;62742;52.136;4.500;2023-12-20T18:45:23;101073.41;;;9.05;100.00
72857;BME280;62742;52.136;4.500;2023-12-20T18:47:49;101062.00;;;9.13;100.00
72857;BME280;62742;52.136;4.500;2023-12-20T18:50:16;101051.56;;;9.04;100.00
72857;BME280;62742;52.136;4.500;2023-12-20T18:52:42;101061.22;;;9.02;100.00
72857;BME280;62742;52.136;4.500;2023-12-20T18:55:12;101058.59;;;8.97;100.00
72857;BME280;62742;52.136;4.500;2023-12-20T18:57:39;101049.03;;;8.93;100.00
72857;BME280;62742;52.136;4.500;2023-12-20T19:00:05;101040.25;;;8.97;100.00
72857;BME280;62742;52.136;4.500;2023-12-20T19:02:33;101039.41;;;8.97;100.00
72857;BME280;62742;52.136;4.500;2023-12-20T19:05:00;101042.88;;;8.96;100.00
72857;BME280;62742;52.136;4.500;2023-12-20T19:07:27;101035.88;;;8.96;100.00
72857;BME280;62742;52.136;4.500;2023-12-20T19:09:53;101020.16;;;8.98;100.00
72857;BME280;62742;52.136;4.500;2023-12-20T19:12:20;101041.09;;;9.04;100.00
72857;BME280;62742;52.136;4.500;2023-12-20T19:14:46;101027.97;;;9.07;100.00
72857;BME280;62742;52.136;4.500;2023-12-20T19:17:12;101027.06;;;9.11;100.00
72857;BME280;62742;52.136;4.500;2023-12-20T19:19:39;101027.13;;;9.02;100.00
72857;BME280;62742;52.136;4.500;2023-12-20T19:22:05;101021.91;;;9.02;100.00
72857;BME280;62742;52.136;4.500;2023-12-20T19:24:32;101023.63;;;9.03;100.00
72857;BME280;62742;52.136;4.500;2023-12-20T19:26:58;101008.75;;;9.05;100.00
72857;BME280;62742;52.136;4.500;2023-12-20T19:29:25;101007.03;;;9.01;100.00
72857;BME280;62742;52.136;4.500;2023-12-20T19:31:54;100991.28;;;9.07;100.00
72857;BME280;62742;52.136;4.500;2023-12-20T19:34:21;101000.88;;;9.05;100.00
72857;BME280;62742;52.136;4.500;2023-12-20T19:36:48;101010.50;;;9.03;100.00
72857;BME280;62742;52.136;4.500;2023-12-20T19:39:14;100992.16;;;9.06;100.00
72857;BME280;62742;52.136;4.500;2023-12-20T19:41:41;100995.59;;;9.11;100.00
72857;BME280;62742;52.136;4.500;2023-12-20T19:44:07;100987.75;;;9.11;100.00
72857;BME280;62742;52.136;4.500;2023-12-20T19:46:34;100985.97;;;9.12;100.00
72857;BME280;62742;52.136;4.500;2023-12-20T19:49:00;100981.56;;;9.18;100.00
72857;BME280;62742;52.136;4.500;2023-12-20T19:51:29;100981.56;;;9.15;100.00
72857;BME280;62742;52.136;4.500;2023-12-20T19:53:55;100966.66;;;9.25;100.00
72857;BME280;62742;52.136;4.500;2023-12-20T19:56:22;100967.50;;;9.27;100.00
72857;BME280;62742;52.136;4.500;2023-12-20T19:58:48;100969.28;;;9.24;100.00
72857;BME280;62742;52.136;4.500;2023-12-20T20:01:15;100974.47;;;9.33;100.00
72857;BME280;62742;52.136;4.500;2023-12-20T20:03:41;100983.97;;;9.46;100.00
72857;BME280;62742;52.136;4.500;2023-12-20T20:06:07;100986.56;;;9.49;100.00
72857;BME280;62742;52.136;4.500;2023-12-20T20:08:37;100984.84;;;9.48;100.00
72857;BME280;62742;52.136;4.500;2023-12-20T20:11:04;100969.13;;;9.42;100.00
72857;BME280;62742;52.136;4.500;2023-12-20T20:13:31;100976.16;;;9.40;100.00
72857;BME280;62742;52.136;4.500;2023-12-20T20:15:59;100977.84;;;9.44;100.00
72857;BME280;62742;52.136;4.500;2023-12-20T20:18:26;100985.72;;;9.44;100.00
72857;BME280;62742;52.136;4.500;2023-12-20T20:20:52;100997.94;;;9.50;100.00
72857;BME280;62742;52.136;4.500;2023-12-20T20:23:19;100992.63;;;9.56;100.00
72857;BME280;62742;52.136;4.500;2023-12-20T20:25:45;100989.09;;;9.62;100.00
72857;BME280;62742;52.136;4.500;2023-12-20T20:28:12;100985.56;;;9.63;100.00
72857;BME280;62742;52.136;4.500;2023-12-20T20:30:38;100972.41;;;9.66;100.00
72857;BME280;62742;52.136;4.500;2023-12-20T20:33:05;100979.47;;;9.59;100.00
72857;BME280;62742;52.136;4.500;2023-12-20T20:35:31;100976.06;;;9.49;100.00
72857;BME280;62742;52.136;4.500;2023-12-20T20:37:59;100954.13;;;9.58;100.00
72857;BME280;62742;52.136;4.500;2023-12-20T20:40:25;100955.06;;;9.49;100.00
72857;BME280;62742;52.136;4.500;2023-12-20T20:42:52;100972.59;;;9.44;100.00
72857;BME280;62742;52.136;4.500;2023-12-20T20:45:18;100970.75;;;9.59;100.00
72857;BME280;62742;52.136;4.500;2023-12-20T20:47:44;100959.44;;;9.50;100.00
72857;BME280;62742;52.136;4.500;2023-12-20T20:50:11;100953.34;;;9.51;100.00
72857;BME280;62742;52.136;4.500;2023-12-20T20:52:37;100948.84;;;9.60;100.00
72857;BME280;62742;52.136;4.500;2023-12-20T20:55:05;100928.66;;;9.68;100.00
72857;BME280;62742;52.136;4.500;2023-12-20T20:57:31;100931.31;;;9.63;100.00
72857;BME280;62742;52.136;4.500;2023-12-20T20:59:58;100909.47;;;9.63;100.00
72857;BME280;62742;52.136;4.500;2023-12-20T21:02:25;100898.97;;;9.63;100.00
72857;BME280;62742;52.136;4.500;2023-12-20T21:04:51;100891.97;;;9.65;100.00
72857;BME280;62742;52.136;4.500;2023-12-20T21:07:18;100904.28;;;9.58;100.00
72857;BME280;62742;52.136;4.500;2023-12-20T21:09:44;100901.72;;;9.55;100.00
72857;BME280;62742;52.136;4.500;2023-12-20T21:12:11;100899.00;;;9.60;100.00
72857;BME280;62742;52.136;4.500;2023-12-20T21:14:37;100908.50;;;9.73;100.00
72857;BME280;62742;52.136;4.500;2023-12-20T21:17:04;100905.91;;;9.70;100.00
72857;BME280;62742;52.136;4.500;2023-12-20T21:19:30;100898.97;;;9.66;100.00
72857;BME280;62742;52.136;4.500;2023-12-20T21:21:57;100914.66;;;9.72;100.00
72857;BME280;62742;52.136;4.500;2023-12-20T21:24:23;100913.69;;;9.78;100.00
72857;BME280;62742;52.136;4.500;2023-12-20T21:26:50;100905.00;;;9.72;100.00
72857;BME280;62742;52.136;4.500;2023-12-20T21:29:16;100915.50;;;9.74;100.00
72857;BME280;62742;52.136;4.500;2023-12-20T21:31:43;100908.47;;;9.74;100.00
72857;BME280;62742;52.136;4.500;2023-12-20T21:34:09;100914.59;;;9.73;100.00
72857;BME280;62742;52.136;4.500;2023-12-20T21:36:36;100892.69;;;9.81;100.00
72857;BME280;62742;52.136;4.500;2023-12-20T21:39:03;100895.25;;;9.84;100.00
